Time;durP1;ratioP1;P1;durP2;ratioP2;P2;SDS_P1;SDS_P2;PMS_P1;PMS_P2;Temp;Humidity;BMP_temperature;BMP_pressure;BME280_temperature;BME280_humidity;BME280_pressure;Samples;Min_cycle;Max_cycle;Signal;HPM_P1;HPM_P2
2021/12/15 04:37:13;;;;;;;26.10;16.50;;;;;;;11.18;62.06;100177.09;6961129;28;20218;-88
2021/12/15 04:48:17;;;;;;;27.83;17.27;;;;;;;11.16;62.33;100197.19;6933259;28;20221;-81
2021/12/15 04:51:39;;;;;;;24.80;16.03;;;;;;;11.42;61.83;100187.78;6923765;28;20212;-81
2021/12/15 04:55:04;;;;;;;27.03;16.77;;;;;;;11.25;61.81;100188.88;6922996;28;20204;-82
2021/12/15 04:58:25;;;;;;;29.03;16.50;;;;;;;10.99;62.87;100196.38;6924959;28;20232;-81
2021/12/15 05:01:47;;;;;;;26.53;16.43;;;;;;;10.77;62.82;100163.91;6924405;28;20721;-80
2021/12/15 05:05:10;;;;;;;27.57;16.73;;;;;;;10.80;63.31;100180.59;6924219;28;20230;-81
2021/12/15 05:08:31;;;;;;;25.87;15.67;;;;;;;11.28;62.41;100183.09;6925263;28;20237;-80
2021/12/15 05:11:54;;;;;;;28.20;16.47;;;;;;;10.93;61.80;100102.63;6946271;28;20206;-81
2021/12/15 05:15:17;;;;;;;25.70;15.53;;;;;;;11.33;61.57;100188.81;6951810;28;20235;-81
2021/12/15 05:18:38;;;;;;;24.10;15.67;;;;;;;11.09;62.30;100182.72;6952313;28;20210;-82
2021/12/15 05:22:00;;;;;;;20.13;13.80;;;;;;;11.46;61.82;100188.25;6952473;28;20712;-80
2021/12/15 05:25:22;;;;;;;18.73;12.83;;;;;;;11.39;60.92;100161.09;6952441;28;20229;-80
2021/12/15 05:28:46;;;;;;;19.50;13.83;;;;;;;11.29;61.29;100195.59;6954460;28;20201;-80
2021/12/15 05:32:09;;;;;;;19.30;13.27;;;;;;;10.98;61.98;100208.19;6959095;28;20216;-80
2021/12/15 05:35:33;;;;;;;17.83;11.90;;;;;;;11.04;62.65;100195.88;6953103;28;20710;-82
2021/12/15 05:38:55;;;;;;;17.50;12.10;;;;;;;11.14;62.17;100213.53;6950756;28;20314;-82
2021/12/15 05:42:17;;;;;;;22.93;15.13;;;;;;;11.03;62.42;100191.50;6952357;28;20231;-80
2021/12/15 05:45:42;;;;;;;16.73;11.40;;;;;;;11.31;61.12;100171.09;6951102;28;20598;-81
2021/12/15 05:49:04;;;;;;;17.00;11.90;;;;;;;11.68;60.69;100214.50;6950810;28;20210;-81
2021/12/15 05:52:29;;;;;;;14.73;11.40;;;;;;;11.32;61.22;100206.03;6949459;28;20203;-81
2021/12/15 05:55:52;;;;;;;17.43;12.37;;;;;;;11.31;61.15;100190.88;6949799;28;20220;-81
2021/12/15 05:59:13;;;;;;;16.37;11.43;;;;;;;11.26;61.89;100231.03;6950358;28;20260;-82
2021/12/15 06:02:36;;;;;;;16.77;11.73;;;;;;;11.08;61.76;100203.44;6950483;28;20241;-82
2021/12/15 06:05:58;;;;;;;18.13;11.40;;;;;;;11.45;61.54;100227.09;6949751;28;20232;-81
2021/12/15 06:09:20;;;;;;;19.30;12.57;;;;;;;11.52;60.84;100238.88;6951197;28;20203;-81
2021/12/15 06:12:42;;;;;;;20.13;12.20;;;;;;;11.02;62.15;100241.06;6949984;28;20610;-82
2021/12/15 06:16:06;;;;;;;16.67;12.03;;;;;;;11.12;61.88;100198.53;6949397;28;20237;-81
2021/12/15 06:19:29;;;;;;;15.57;11.13;;;;;;;11.49;61.36;100220.28;6950207;28;20213;-82
2021/12/15 06:22:55;;;;;;;10.73;9.13;;;;;;;11.64;60.46;100235.59;6949530;28;20252;-81
2021/12/15 06:26:18;;;;;;;14.73;10.33;;;;;;;11.59;60.80;100232.63;6948494;28;20237;-80
2021/12/15 06:29:40;;;;;;;16.80;10.40;;;;;;;11.54;60.46;100232.28;6947993;28;20576;-82
2021/12/15 06:33:01;;;;;;;14.00;10.03;;;;;;;11.37;61.14;100246.88;6948595;28;20200;-82
2021/12/15 06:36:25;;;;;;;14.80;9.47;;;;;;;11.54;60.50;100236.81;6947780;28;20237;-82
2021/12/15 06:39:47;;;;;;;12.43;9.67;;;;;;;11.65;60.04;100252.66;6948482;28;20216;-81
2021/12/15 06:43:08;;;;;;;12.43;9.40;;;;;;;11.60;60.04;100250.50;6948125;28;20227;-82
2021/12/15 07:01:13;;;;;;;13.00;10.50;;;;;;;11.72;59.68;100262.59;6947539;28;20271;-82
2021/12/15 07:04:35;;;;;;;13.50;10.57;;;;;;;11.73;59.49;100268.81;6948386;28;20213;-82
2021/12/15 07:07:57;;;;;;;14.27;10.03;;;;;;;11.71;59.85;100268.16;6949944;28;20736;-82
2021/12/15 07:11:20;;;;;;;15.03;10.73;;;;;;;11.65;60.16;100277.84;6949634;28;20204;-83
2021/12/15 07:14:42;;;;;;;12.83;10.67;;;;;;;11.77;59.40;100264.75;6948349;28;20202;-81
2021/12/15 07:18:08;;;;;;;15.70;10.80;;;;;;;11.67;59.64;100289.31;6948012;28;20226;-80
2021/12/15 07:21:34;;;;;;;13.23;10.03;;;;;;;11.73;59.47;100293.16;6948949;28;20211;-82
2021/12/15 07:24:56;;;;;;;17.03;11.53;;;;;;;11.50;59.60;100247.13;6945700;28;20233;-80
2021/12/15 07:28:21;;;;;;;15.07;10.93;;;;;;;11.58;59.55;100279.53;6949373;28;20209;-82
2021/12/15 07:31:43;;;;;;;14.93;10.93;;;;;;;11.72;59.37;100315.78;6942516;28;20214;-81
2021/12/15 07:35:07;;;;;;;15.90;11.83;;;;;;;11.52;59.47;100287.47;6947579;28;20188;-81
2021/12/15 07:38:29;;;;;;;15.37;11.03;;;;;;;11.59;59.82;100299.31;6948590;28;20204;-81
2021/12/15 07:41:53;;;;;;;16.83;11.70;;;;;;;11.48;59.63;100316.72;6952362;28;20599;-81
2021/12/15 07:45:16;;;;;;;16.73;12.27;;;;;;;11.20;60.68;100319.97;6952642;28;20699;-82
2021/12/15 07:48:39;;;;;;;21.23;13.63;;;;;;;11.38;60.84;100328.69;6953930;28;20198;-82
2021/12/15 07:52:04;;;;;;;17.20;11.53;;;;;;;11.31;60.31;100295.31;6952786;28;20225;-80
2021/12/15 07:55:26;;;;;;;12.60;10.70;;;;;;;11.16;59.57;100332.97;6951713;28;20219;-80
2021/12/15 07:58:48;;;;;;;11.00;9.23;;;;;;;11.45;58.89;100333.25;6952887;28;20271;-81
2021/12/15 08:02:11;;;;;;;12.83;9.90;;;;;;;11.16;59.11;100299.75;6952769;28;20226;-78
2021/12/15 08:05:34;;;;;;;10.40;9.17;;;;;;;11.02;59.14;100322.91;6939670;28;20223;-82
2021/12/15 08:08:56;;;;;;;11.43;8.97;;;;;;;11.07;59.12;100320.53;6925174;28;20211;-82
2021/12/15 08:12:18;;;;;;;11.53;9.97;;;;;;;11.02;59.08;100314.78;6925865;28;20264;-81
2021/12/15 08:15:40;;;;;;;13.20;10.00;;;;;;;11.47;58.44;100341.19;6925636;28;20228;-82
2021/12/15 08:19:03;;;;;;;13.57;10.57;;;;;;;11.18;59.26;100349.00;6932218;28;20662;-82
2021/12/15 08:22:25;;;;;;;15.50;11.17;;;;;;;11.32;59.07;100338.34;6952858;28;20223;-82
2021/12/15 08:25:47;;;;;;;13.57;10.77;;;;;;;11.27;58.77;100310.19;6952612;28;20742;-82
2021/12/15 08:29:08;;;;;;;17.17;11.47;;;;;;;11.41;58.74;100348.13;6952981;28;20210;-82
2021/12/15 08:32:30;;;;;;;14.40;11.20;;;;;;;11.32;58.58;100351.00;6953163;28;20599;-81
2021/12/15 08:35:58;;;;;;;15.77;12.17;;;;;;;11.28;58.40;100345.09;6952574;28;20231;-82
2021/12/15 08:39:19;;;;;;;17.03;12.63;;;;;;;11.33;59.51;100339.22;6950820;28;20212;-81
2021/12/15 08:42:41;;;;;;;15.63;11.87;;;;;;;11.30;59.07;100348.50;6954003;28;20236;-82
2021/12/15 08:46:06;;;;;;;12.70;10.67;;;;;;;11.02;58.99;100357.13;6925644;28;20234;-82
2021/12/15 08:49:28;;;;;;;14.77;10.73;;;;;;;11.43;58.12;100334.44;6927188;28;20196;-81
2021/12/15 08:52:51;;;;;;;14.10;10.60;;;;;;;11.87;57.45;100360.81;6953543;28;20208;-81
2021/12/15 08:56:13;;;;;;;14.13;11.20;;;;;;;11.53;57.12;100343.19;6952433;28;20238;-80
2021/12/15 08:59:35;;;;;;;13.17;10.20;;;;;;;11.81;57.42;100357.97;6947235;28;20203;-81
2021/12/15 09:02:56;;;;;;;13.63;10.33;;;;;;;12.00;57.26;100357.56;6949517;28;20228;-79
2021/12/15 09:06:18;;;;;;;16.57;12.37;;;;;;;11.95;57.32;100352.69;6950085;28;20692;-81
2021/12/15 09:09:41;;;;;;;13.83;10.57;;;;;;;11.91;56.73;100347.78;6944524;28;20214;-80
2021/12/15 09:13:04;;;;;;;14.13;10.60;;;;;;;11.89;56.22;100345.28;6943985;28;20307;-79
2021/12/15 09:16:26;;;;;;;13.70;10.60;;;;;;;11.91;56.58;100354.03;6952198;28;20233;-79
2021/12/15 09:19:48;;;;;;;12.93;11.10;;;;;;;11.79;56.98;100322.16;6959245;28;20209;-86
2021/12/15 09:23:13;;;;;;;13.33;10.83;;;;;;;12.11;57.38;100366.09;6956598;28;20234;-82
2021/12/15 09:26:38;;;;;;;14.77;11.13;;;;;;;12.03;57.29;100335.59;6950379;28;20248;-81
2021/12/15 09:29:59;;;;;;;17.07;11.63;;;;;;;12.18;57.22;100358.97;6952698;28;20202;-82
2021/12/15 09:33:23;;;;;;;12.90;10.60;;;;;;;12.21;57.57;100366.72;6950527;28;20555;-82
2021/12/15 09:36:46;;;;;;;14.13;10.83;;;;;;;12.22;57.17;100362.16;6949342;28;20594;-81
2021/12/15 09:40:09;;;;;;;13.90;10.60;;;;;;;12.37;56.47;100363.06;6950896;28;20301;-81
2021/12/15 09:43:34;;;;;;;16.73;11.60;;;;;;;12.30;56.93;100354.00;6943811;28;20621;-81
2021/12/15 09:47:13;;;;;;;12.27;10.07;;;;;;;12.46;56.54;100362.84;6926510;28;20615;-79
2021/12/15 10:02:04;;;;;;;10.37;9.23;;;;;;;12.39;55.61;100366.47;6950251;28;20222;-80
2021/12/15 10:05:42;;;;;;;11.17;9.07;;;;;;;12.26;55.82;100355.38;6948532;28;20229;-80
2021/12/15 10:20:20;;;;;;;4.97;4.50;;;;;;;12.09;55.00;100364.63;6950310;28;20201;-80
2021/12/15 10:23:45;;;;;;;5.17;4.77;;;;;;;12.01;54.95;100362.78;6950228;28;20274;-79
2021/12/15 10:27:08;;;;;;;5.43;4.63;;;;;;;12.21;54.38;100366.72;6949542;28;20239;-80
2021/12/15 10:30:31;;;;;;;5.43;4.90;;;;;;;11.89;54.27;100366.03;6946903;28;20217;-78
2021/12/15 10:33:55;;;;;;;5.30;4.30;;;;;;;12.02;53.47;100371.72;6946920;28;20216;-78
2021/12/15 10:37:18;;;;;;;3.73;3.40;;;;;;;11.14;56.12;100363.84;6948851;28;20229;-79
2021/12/15 10:40:42;;;;;;;4.23;3.57;;;;;;;10.85;55.97;100355.44;6949585;28;20212;-78
2021/12/15 10:44:06;;;;;;;4.30;3.90;;;;;;;10.88;56.18;100355.13;6947823;28;20223;-78
2021/12/15 10:47:28;;;;;;;4.07;3.67;;;;;;;11.61;55.24;100349.44;6949950;23;20333;-85
2021/12/15 10:50:54;;;;;;;3.83;3.53;;;;;;;11.19;54.19;100256.19;6904609;28;20231;-85
2021/12/15 10:54:19;;;;;;;4.10;3.80;;;;;;;11.08;54.57;100268.22;6927335;28;20201;-86
2021/12/15 10:57:44;;;;;;;4.67;4.27;;;;;;;11.18;54.33;100290.47;6923260;28;20223;-84
2021/12/15 11:01:44;;;;;;;4.73;4.33;;;;;;;11.85;53.55;100362.00;6930429;28;20262;-86
2021/12/15 11:05:10;;;;;;;4.20;3.80;;;;;;;11.72;53.84;100354.47;6927718;28;20671;-83
2021/12/15 11:08:34;;;;;;;5.10;4.60;;;;;;;11.57;54.79;100350.75;6923357;28;20222;-86
2021/12/15 11:12:00;;;;;;;3.93;3.63;;;;;;;11.55;53.95;100322.22;6912533;28;20234;-85
2021/12/15 11:15:26;;;;;;;4.33;4.03;;;;;;;11.76;54.01;100338.75;6896129;28;20206;-85
2021/12/15 11:18:47;;;;;;;4.83;4.43;;;;;;;11.60;54.36;100338.81;6902279;28;20217;-85
2021/12/15 11:22:40;;;;;;;4.60;4.20;;;;;;;11.57;54.04;100349.94;6924860;28;20223;-83
2021/12/15 11:26:04;;;;;;;5.70;5.20;;;;;;;11.64;54.17;100348.25;6923678;28;20237;-86
2021/12/15 11:33:33;;;;;;;4.53;4.13;;;;;;;10.20;57.01;100342.91;7049777;27;20554;-85
2021/12/15 11:36:55;;;;;;;4.07;3.77;;;;;;;10.61;56.55;100333.88;7019149;28;20217;-87
2021/12/15 11:40:19;;;;;;;4.60;4.20;;;;;;;10.38;56.69;100335.53;7010732;28;20563;-84
2021/12/15 11:43:45;;;;;;;4.70;4.30;;;;;;;10.11;57.06;100315.09;7006191;28;20206;-84
2021/12/15 11:47:08;;;;;;;4.20;3.90;;;;;;;10.49;57.30;100330.69;7016402;22;20250;-76
2021/12/15 11:50:31;;;;;;;4.83;4.43;;;;;;;9.82;58.72;100332.69;6941243;28;20517;-79
2021/12/15 11:53:53;;;;;;;4.37;4.07;;;;;;;10.44;57.90;100329.47;6943332;28;20610;-76
2021/12/15 11:57:19;;;;;;;5.00;4.50;;;;;;;10.26;57.94;100309.91;6942739;28;20232;-77
2021/12/15 12:00:40;;;;;;;4.57;4.17;;;;;;;10.22;58.08;100314.78;6942291;28;20256;-79
2021/12/15 12:04:24;;;;;;;4.70;4.30;;;;;;;9.70;59.17;100315.16;6945177;28;20677;-77
2021/12/15 12:07:48;;;;;;;4.53;4.13;;;;;;;10.38;58.36;100301.34;6941877;28;20227;-78
2021/12/15 12:11:15;;;;;;;4.90;4.50;;;;;;;10.36;57.32;100310.59;6940810;28;20230;-79
2021/12/15 12:14:48;;;;;;;4.00;3.70;;;;;;;10.68;56.89;100306.06;6943831;28;20237;-80
2021/12/15 12:18:13;;;;;;;4.00;3.70;;;;;;;9.57;59.49;100299.44;6944617;28;20256;-76
2021/12/15 12:21:34;;;;;;;4.67;4.33;;;;;;;9.71;59.99;100309.59;6942717;28;20207;-77
2021/12/15 12:25:01;;;;;;;4.53;3.73;;;;;;;9.83;58.77;100300.22;6940270;28;20213;-77
2021/12/15 12:28:25;;;;;;;3.87;3.57;;;;;;;10.37;58.61;100283.47;6942982;28;20195;-76
2021/12/15 12:31:47;;;;;;;3.93;3.63;;;;;;;10.43;57.38;100281.94;6943929;28;20230;-77
2021/12/15 12:35:10;;;;;;;4.40;4.00;;;;;;;10.77;56.15;100252.94;6932177;28;20195;-77
2021/12/15 12:38:34;;;;;;;3.73;3.43;;;;;;;10.79;56.15;100267.94;6943252;28;20208;-80
2021/12/15 12:41:57;;;;;;;3.70;3.40;;;;;;;10.31;56.96;100257.19;6939024;28;20728;-79
2021/12/15 12:45:29;;;;;;;4.67;4.27;;;;;;;9.83;57.40;100240.09;6923176;28;20225;-76
2021/12/15 12:49:16;;;;;;;3.70;3.40;;;;;;;10.42;57.78;100278.44;6926539;28;20222;-78
2021/12/15 13:00:39;;;;;;;3.77;3.47;;;;;;;10.63;56.30;100281.44;6913467;28;20229;-80
2021/12/15 13:04:11;;;;;;;4.93;3.67;;;;;;;11.25;54.91;100288.75;6933189;28;20210;-80
2021/12/15 13:07:46;;;;;;;4.27;3.87;;;;;;;10.94;55.67;100249.19;6933478;28;20227;-80
2021/12/15 13:11:15;;;;;;;3.93;3.57;;;;;;;11.35;54.53;100285.84;6932661;28;20229;-80
2021/12/15 13:14:38;;;;;;;4.10;3.80;;;;;;;11.44;54.47;100280.25;6932682;28;20224;-80
2021/12/15 13:18:11;;;;;;;4.03;3.73;;;;;;;11.31;54.25;100262.91;6935947;28;20229;-80
2021/12/15 13:22:15;;;;;;;4.67;4.27;;;;;;;11.38;54.64;100272.00;6926847;28;20202;-77
2021/12/15 13:29:27;;;;;;;4.23;3.93;;;;;;;10.70;55.76;100252.78;6922134;28;20691;-78
2021/12/15 13:32:49;;;;;;;4.47;4.07;;;;;;;10.49;56.98;100276.75;6922835;28;20226;-78
2021/12/15 13:36:14;;;;;;;4.73;4.33;;;;;;;10.28;57.86;100270.16;6926078;28;20227;-78
2021/12/15 13:39:49;;;;;;;4.80;4.40;;;;;;;10.01;58.30;100275.81;6927829;28;20351;-78
2021/12/15 13:43:41;;;;;;;4.20;3.80;;;;;;;10.45;57.36;100267.28;6930098;28;20683;-78
2021/12/15 13:47:15;;;;;;;4.10;3.80;;;;;;;10.66;56.61;100267.63;6921418;28;20238;-79
2021/12/15 13:50:45;;;;;;;4.63;4.23;;;;;;;11.39;55.46;100255.63;6932748;28;20202;-78
2021/12/15 13:54:21;;;;;;;4.20;3.83;;;;;;;10.71;56.67;100272.50;6894356;28;20230;-78
2021/12/15 13:58:17;;;;;;;4.80;4.40;;;;;;;10.91;56.25;100277.38;6911675;28;20230;-77
2021/12/15 14:01:39;;;;;;;5.30;4.80;;;;;;;10.79;56.32;100280.59;6909468;28;20201;-80
2021/12/15 14:05:04;;;;;;;4.47;4.17;;;;;;;11.21;55.81;100278.50;6922630;28;20219;-79
2021/12/15 14:08:32;;;;;;;4.33;4.03;;;;;;;11.54;55.05;100264.69;6923518;28;20215;-79
2021/12/15 14:11:55;;;;;;;4.50;4.10;;;;;;;11.78;54.32;100275.41;6925890;28;20231;-78
2021/12/15 14:15:44;;;;;;;4.60;4.20;;;;;;;11.84;53.73;100255.78;6920910;28;20222;-80
2021/12/15 14:19:08;;;;;;;5.07;4.57;;;;;;;11.54;54.79;100275.50;6924386;28;20207;-80
2021/12/15 14:22:29;;;;;;;5.30;4.70;;;;;;;11.52;54.63;100284.78;6926233;28;20208;-79
2021/12/15 14:25:51;;;;;;;5.27;4.77;;;;;;;11.15;55.60;100269.22;6925495;28;20212;-80
2021/12/15 14:29:18;;;;;;;5.07;4.67;;;;;;;11.47;54.83;100258.31;6926493;28;20210;-80
2021/12/15 14:32:39;;;;;;;5.87;5.37;;;;;;;11.80;54.14;100281.47;6927420;28;20241;-80
2021/12/15 14:36:07;;;;;;;6.27;5.77;;;;;;;10.96;55.54;100295.75;6926619;28;20234;-80
2021/12/15 14:39:31;;;;;;;6.50;5.23;;;;;;;11.26;55.00;100287.75;6898975;28;20245;-80
2021/12/15 14:42:53;;;;;;;5.47;5.00;;;;;;;10.69;56.34;100288.03;6925440;28;20206;-81
2021/12/15 14:46:19;;;;;;;4.83;4.43;;;;;;;10.91;55.91;100295.41;6952381;28;20243;-81
2021/12/15 14:49:43;;;;;;;5.33;4.83;;;;;;;10.60;57.01;100308.78;6952476;28;20193;-79
2021/12/15 14:53:07;;;;;;;5.87;5.37;;;;;;;9.51;60.47;100316.25;6935461;28;20223;-79
2021/12/15 14:56:54;;;;;;;5.87;5.37;;;;;;;10.50;58.51;100313.47;6925836;28;20748;-81
2021/12/15 15:00:18;;;;;;;5.80;5.30;;;;;;;10.74;56.25;100274.88;6919896;28;20213;-80
2021/12/15 15:03:57;;;;;;;6.10;5.60;;;;;;;11.02;55.96;100316.63;6916847;28;20208;-80
2021/12/15 15:07:20;;;;;;;5.83;5.33;;;;;;;11.02;56.21;100320.19;6916963;28;20227;-81
2021/12/15 15:10:44;;;;;;;5.90;5.40;;;;;;;11.05;55.40;100317.13;6928181;28;20212;-80
2021/12/15 15:14:06;;;;;;;6.13;5.53;;;;;;;10.84;55.87;100332.19;6926293;28;20203;-80
2021/12/15 15:17:32;;;;;;;6.53;5.93;;;;;;;10.53;56.38;100271.84;6923920;28;20218;-81
2021/12/15 15:20:57;;;;;;;6.17;5.67;;;;;;;11.52;54.93;100311.78;6926756;28;20210;-83
2021/12/15 15:24:28;;;;;;;5.60;5.07;;;;;;;11.51;54.48;100289.34;6926260;28;20211;-80
2021/12/15 15:27:53;;;;;;;6.30;5.70;;;;;;;11.53;54.04;100313.47;6915138;28;20303;-80
2021/12/15 15:31:17;;;;;;;6.43;5.83;;;;;;;11.12;54.78;100309.22;6926166;28;20220;-81
2021/12/15 15:34:39;;;;;;;7.10;6.50;;;;;;;11.14;55.27;100299.94;6927253;28;20206;-81
2021/12/15 15:38:09;;;;;;;6.23;5.73;;;;;;;11.16;55.11;100318.66;6921736;28;20797;-81
2021/12/15 15:41:34;;;;;;;6.67;6.07;;;;;;;10.95;54.37;100264.38;6924243;28;20577;-79
2021/12/15 15:44:56;;;;;;;6.80;6.17;;;;;;;10.93;55.62;100321.22;6925293;28;20192;-79
2021/12/15 15:48:19;;;;;;;6.83;6.13;;;;;;;9.77;59.41;100326.94;6924550;28;20612;-80
2021/12/15 15:51:42;;;;;;;7.10;6.50;;;;;;;10.21;57.48;100306.91;6922438;28;20253;-85
2021/12/15 15:55:06;;;;;;;7.40;6.70;;;;;;;10.18;57.33;100302.69;6931859;28;20188;-82
2021/12/15 15:58:28;;;;;;;54.10;28.73;;;;;;;11.09;57.49;100323.06;6924063;28;20214;-84
2021/12/15 16:01:51;;;;;;;8.80;7.57;;;;;;;10.69;55.29;100234.09;6925643;28;20198;-82
2021/12/15 16:05:14;;;;;;;6.77;6.07;;;;;;;10.39;57.04;100311.09;6923978;28;20218;-85
2021/12/15 16:08:39;;;;;;;7.63;6.93;;;;;;;10.09;57.24;100286.66;6925798;28;20218;-82
2021/12/15 16:12:05;;;;;;;7.10;6.40;;;;;;;10.03;57.98;100320.50;6912359;28;20220;-82
2021/12/15 16:15:37;;;;;;;7.33;6.63;;;;;;;10.13;58.39;100347.28;6924894;28;20601;-81
2021/12/15 16:19:04;;;;;;;7.10;6.40;;;;;;;10.12;58.07;100342.91;6927555;28;20215;-82
2021/12/15 16:26:10;;;;;;;6.80;6.10;;;;;;;10.28;57.28;100354.56;6928904;28;20234;-81
2021/12/15 16:29:33;;;;;;;7.40;6.60;;;;;;;10.05;58.00;100352.66;6930417;28;20193;-82
2021/12/15 16:32:58;;;;;;;7.83;7.03;;;;;;;9.91;58.60;100364.03;6928836;28;20229;-81
2021/12/15 16:36:20;;;;;;;6.90;6.30;;;;;;;10.71;56.21;100369.63;6930629;28;20252;-81
2021/12/15 16:39:44;;;;;;;6.63;6.03;;;;;;;10.52;57.06;100364.56;6932488;28;20202;-81
2021/12/15 16:43:09;;;;;;;6.90;6.30;;;;;;;11.01;55.78;100355.44;6938124;28;20207;-81
2021/12/15 16:46:36;;;;;;;7.00;6.30;;;;;;;11.28;54.40;100338.88;6931292;28;20237;-80
2021/12/15 16:49:58;;;;;;;6.63;5.93;;;;;;;11.03;54.33;100312.94;6928046;28;20222;-82
2021/12/15 16:53:21;;;;;;;6.37;5.77;;;;;;;11.17;54.04;100337.34;6926895;28;20233;-82
2021/12/15 16:56:46;;;;;;;7.80;6.73;;;;;;;11.39;54.22;100366.34;6927462;28;20974;-83
2021/12/15 17:00:11;;;;;;;7.93;7.17;;;;;;;11.03;55.23;100364.25;6925788;28;20206;-82
2021/12/15 17:03:37;;;;;;;8.43;7.63;;;;;;;11.25;55.34;100367.06;6906994;28;20212;-82
2021/12/15 17:07:01;;;;;;;8.23;7.43;;;;;;;11.45;54.23;100365.66;6924890;28;20228;-81
2021/12/15 17:10:26;;;;;;;7.70;7.00;;;;;;;11.50;53.60;100370.53;6925025;28;20202;-82
2021/12/15 17:13:49;;;;;;;7.53;6.80;;;;;;;10.33;56.36;100386.44;6920413;28;20238;-79
2021/12/15 17:17:11;;;;;;;7.20;6.50;;;;;;;10.75;55.43;100360.19;6925295;28;20288;-82
2021/12/15 17:20:37;;;;;;;11.80;9.47;;;;;;;10.78;55.76;100384.97;6925055;28;20225;-81
2021/12/15 17:24:01;;;;;;;8.90;8.00;;;;;;;10.61;55.96;100387.81;6929211;28;20211;-80
2021/12/15 17:27:22;;;;;;;9.63;8.67;;;;;;;10.11;57.58;100393.25;6926044;28;20314;-82
2021/12/15 17:30:47;;;;;;;8.93;8.03;;;;;;;10.71;56.26;100383.97;6914675;28;20213;-82
2021/12/15 17:34:10;;;;;;;7.87;7.17;;;;;;;10.69;56.86;100391.38;6897454;28;20230;-82
2021/12/15 17:37:33;;;;;;;7.03;6.33;;;;;;;10.96;55.49;100392.88;6899153;28;20234;-82
2021/12/15 17:40:57;;;;;;;7.03;6.43;;;;;;;11.12;55.53;100392.88;6924537;28;20712;-81
2021/12/15 17:44:26;;;;;;;8.57;7.83;;;;;;;10.99;55.90;100382.59;6924010;28;20740;-80
2021/12/15 17:47:49;;;;;;;6.97;6.37;;;;;;;11.38;54.34;100397.06;6921087;28;20618;-81
2021/12/15 17:51:11;;;;;;;7.97;7.20;;;;;;;11.07;54.17;100343.97;6909483;28;20206;-80
2021/12/15 17:54:37;;;;;;;9.10;7.53;;;;;;;11.41;54.06;100398.59;6901381;28;20243;-80
2021/12/15 17:58:02;;;;;;;10.90;9.60;;;;;;;10.72;55.97;100388.34;6898328;28;20316;-82
2021/12/15 18:01:24;;;;;;;8.73;7.93;;;;;;;10.81;55.88;100373.00;6897151;28;20211;-80
2021/12/15 18:04:46;;;;;;;7.73;7.03;;;;;;;10.70;56.05;100406.53;6921887;28;20217;-80
2021/12/15 18:08:08;;;;;;;6.83;6.23;;;;;;;11.03;55.01;100399.31;6924219;28;20228;-80
2021/12/15 18:11:31;;;;;;;7.00;6.40;;;;;;;10.13;56.44;100377.78;6921652;28;20209;-81
2021/12/15 18:14:54;;;;;;;6.73;6.13;;;;;;;9.51;59.46;100396.19;6921620;28;20210;-80
2021/12/15 18:18:16;;;;;;;7.87;7.07;;;;;;;10.09;57.97;100397.16;6911318;28;20225;-80
2021/12/15 18:21:39;;;;;;;6.50;5.90;;;;;;;10.35;57.27;100396.06;6894981;28;20210;-80
2021/12/15 18:25:02;;;;;;;8.63;7.83;;;;;;;10.22;58.19;100414.53;6895355;28;20582;-81
2021/12/15 18:28:25;;;;;;;7.67;6.97;;;;;;;10.97;56.47;100421.56;6908898;28;20234;-81
2021/12/15 18:31:51;;;;;;;9.00;8.20;;;;;;;10.87;56.29;100423.59;6923766;28;20214;-80
2021/12/15 18:35:13;;;;;;;10.90;9.27;;;;;;;9.95;58.68;100435.44;6924667;28;20203;-80
2021/12/15 18:38:35;;;;;;;9.63;7.70;;;;;;;10.30;57.31;100393.00;6922807;28;20204;-81
2021/12/15 18:41:58;;;;;;;7.23;6.63;;;;;;;10.55;56.78;100443.28;6921525;28;20202;-79
2021/12/15 18:45:21;;;;;;;7.87;7.07;;;;;;;10.86;56.24;100462.41;6920319;28;20203;-81
2021/12/15 18:48:43;;;;;;;7.87;7.17;;;;;;;10.88;56.25;100453.13;6920320;28;20202;-81
2021/12/15 18:52:07;;;;;;;7.17;6.57;;;;;;;11.04;56.00;100453.13;6920975;28;20226;-80
2021/12/15 18:55:29;;;;;;;10.60;8.03;;;;;;;10.92;56.20;100459.84;6920627;28;20253;-80
2021/12/15 18:58:51;;;;;;;10.77;8.73;;;;;;;11.09;55.79;100453.47;6920889;28;20206;-80
2021/12/15 19:02:17;;;;;;;9.17;8.27;;;;;;;9.64;59.24;100463.91;6921048;28;20756;-79
2021/12/15 19:05:39;;;;;;;9.13;8.33;;;;;;;9.67;60.13;100461.75;6913715;28;20705;-82
2021/12/15 19:09:01;;;;;;;11.90;10.70;;;;;;;9.57;59.93;100439.44;6918879;28;20263;-80
2021/12/15 19:12:23;;;;;;;9.37;8.47;;;;;;;10.70;57.90;100459.66;6904888;28;20215;-81
2021/12/15 19:15:45;;;;;;;10.00;9.00;;;;;;;10.81;56.31;100464.75;6920688;28;20223;-81
2021/12/15 19:19:11;;;;;;;10.17;9.23;;;;;;;10.67;56.50;100470.78;6921143;28;20190;-81
2021/12/15 19:22:33;;;;;;;9.80;8.90;;;;;;;9.73;59.78;100476.41;6919370;28;20205;-81
2021/12/15 19:25:54;;;;;;;10.23;9.10;;;;;;;9.76;59.62;100471.56;6918198;28;20226;-80
2021/12/15 19:29:16;;;;;;;8.90;8.03;;;;;;;10.01;59.09;100470.69;6920238;28;20226;-80
2021/12/15 19:32:38;;;;;;;9.93;8.93;;;;;;;10.16;57.63;100477.19;6919524;28;20229;-81
2021/12/15 19:36:01;;;;;;;8.80;7.80;;;;;;;9.98;58.82;100473.69;6921235;28;20225;-81
2021/12/15 19:39:23;;;;;;;8.17;7.40;;;;;;;10.80;56.46;100493.56;6910873;28;20210;-82
2021/12/15 19:42:45;;;;;;;9.47;8.57;;;;;;;9.99;57.64;100491.53;6912101;28;20214;-81
2021/12/15 19:46:07;;;;;;;11.67;10.47;;;;;;;10.06;58.08;100484.56;6921280;28;20253;-81
2021/12/15 19:49:29;;;;;;;9.87;8.73;;;;;;;10.40;57.77;100485.34;6922174;28;20203;-81
2021/12/15 19:52:54;;;;;;;11.37;10.17;;;;;;;10.67;56.86;100481.56;6923399;28;20218;-82
2021/12/15 19:56:18;;;;;;;10.97;9.77;;;;;;;10.41;56.80;100478.97;6927881;28;20227;-81
2021/12/15 19:59:40;;;;;;;12.23;11.03;;;;;;;10.89;55.83;100489.88;6928094;28;20198;-81
2021/12/15 20:03:03;;;;;;;10.93;9.83;;;;;;;10.73;56.17;100479.06;6928243;28;20233;-81
2021/12/15 20:06:26;;;;;;;10.80;9.70;;;;;;;11.01;55.77;100480.47;6926404;28;20234;-82
2021/12/15 20:09:49;;;;;;;11.03;9.90;;;;;;;10.09;57.36;100489.63;6926476;28;20204;-81
2021/12/15 20:13:12;;;;;;;11.33;10.20;;;;;;;10.25;57.49;100489.69;6928092;28;20284;-80
2021/12/15 20:16:40;;;;;;;13.57;11.63;;;;;;;9.87;57.89;100476.66;6927776;28;20224;-80
2021/12/15 20:20:02;;;;;;;14.17;11.00;;;;;;;10.36;58.09;100502.88;6930434;28;20209;-81
2021/12/15 20:23:24;;;;;;;14.67;10.13;;;;;;;10.73;56.93;100491.69;6929643;28;20665;-81
2021/12/15 20:26:49;;;;;;;12.10;10.90;;;;;;;11.07;55.43;100497.81;6928508;28;20226;-79
2021/12/15 20:30:12;;;;;;;13.63;11.00;;;;;;;10.77;55.76;100498.44;6929782;28;20213;-80
2021/12/15 20:33:34;;;;;;;14.47;11.83;;;;;;;10.64;57.02;100508.88;6927429;28;20232;-80
2021/12/15 20:36:56;;;;;;;13.27;11.87;;;;;;;10.43;57.14;100493.13;6927322;28;20249;-80
2021/12/15 20:40:18;;;;;;;13.93;11.87;;;;;;;10.41;57.06;100505.94;6928111;28;20213;-80
2021/12/15 20:43:45;;;;;;;14.77;13.17;;;;;;;10.09;57.75;100507.66;6927871;28;20202;-80
2021/12/15 20:47:07;;;;;;;14.80;12.77;;;;;;;10.34;57.61;100514.84;6917353;28;20265;-80
2021/12/15 20:50:29;;;;;;;15.33;13.47;;;;;;;10.36;56.79;100523.59;6928984;28;20212;-81
2021/12/15 20:53:53;;;;;;;14.50;12.97;;;;;;;10.49;57.12;100524.84;6950638;28;20226;-81
2021/12/15 20:57:16;;;;;;;17.50;13.70;;;;;;;10.37;56.85;100484.84;6926525;28;20757;-80
2021/12/15 21:00:41;;;;;;;14.97;12.97;;;;;;;10.67;56.67;100519.31;6925406;28;20209;-81
2021/12/15 21:04:05;;;;;;;13.80;11.93;;;;;;;10.02;57.60;100523.56;6924135;28;20207;-82
2021/12/15 21:07:27;;;;;;;15.97;13.20;;;;;;;9.51;60.06;100520.88;6928040;28;20238;-80
2021/12/15 21:10:51;;;;;;;17.80;13.80;;;;;;;10.18;58.47;100512.91;6931129;28;20482;-80
2021/12/15 21:14:14;;;;;;;16.97;14.63;;;;;;;9.76;58.99;100508.44;6927150;28;20245;-83
2021/12/15 21:17:38;;;;;;;20.73;14.07;;;;;;;9.56;60.07;100528.50;6927266;28;20227;-80
2021/12/15 21:21:00;;;;;;;17.47;13.67;;;;;;;10.12;59.85;100532.44;6928024;28;20210;-81
2021/12/15 21:24:22;;;;;;;18.40;14.13;;;;;;;10.18;58.97;100539.88;6926918;28;20213;-80